Time;durP1;ratioP1;P1;durP2;ratioP2;P2;SDS_P1;SDS_P2;PMS_P1;PMS_P2;Temp;Humidity;BMP_temperature;BMP_pressure;BME280_temperature;BME280_humidity;BME280_pressure;Samples;Min_cycle;Max_cycle;Signal;HPM_P1;HPM_P2
2021/03/31 00:00:27;;;;;;;14.20;11.35;;;10.10;87.10;;;;;;5034329;28;20694;-40
2021/03/31 00:02:56;;;;;;;19.05;12.43;;;10.10;87.50;;;;;;5033603;28;20270;-40
2021/03/31 00:05:23;;;;;;;16.15;12.50;;;10.00;87.50;;;;;;5034292;28;20300;-40
2021/03/31 00:07:50;;;;;;;16.00;12.55;;;10.10;87.70;;;;;;5034503;28;20215;-40
2021/03/31 00:10:23;;;;;;;16.58;11.77;;;10.00;87.80;;;;;;5033902;28;20232;-40
2021/03/31 00:12:50;;;;;;;15.50;11.10;;;10.00;88.30;;;;;;5033685;28;20209;-39
2021/03/31 00:15:17;;;;;;;16.48;12.15;;;10.00;88.40;;;;;;5034192;28;20209;-39
2021/03/31 00:17:45;;;;;;;16.77;12.05;;;10.00;88.60;;;;;;5033863;28;20295;-39
2021/03/31 00:20:14;;;;;;;15.30;11.55;;;10.00;88.80;;;;;;5033899;28;20380;-40
2021/03/31 00:22:42;;;;;;;15.52;10.88;;;10.00;89.00;;;;;;5033921;28;20323;-40
2021/03/31 00:25:11;;;;;;;17.67;11.82;;;9.90;89.20;;;;;;5033822;28;20213;-40
2021/03/31 00:27:38;;;;;;;18.10;12.15;;;9.90;89.40;;;;;;5033697;28;20636;-40
2021/03/31 00:30:06;;;;;;;18.00;12.45;;;9.90;89.40;;;;;;5033747;28;20239;-39
2021/03/31 00:32:33;;;;;;;15.43;12.27;;;9.90;89.50;;;;;;5033755;28;20232;-39
2021/03/31 00:35:02;;;;;;;15.75;11.70;;;9.90;89.60;;;;;;5033831;28;20208;-40
2021/03/31 00:37:30;;;;;;;14.80;11.60;;;9.80;89.70;;;;;;5033644;28;20266;-40
2021/03/31 00:39:56;;;;;;;18.25;12.73;;;9.90;89.80;;;;;;5033506;28;20730;-40
2021/03/31 00:42:23;;;;;;;17.17;13.25;;;9.80;90.00;;;;;;5033558;28;20236;-41
2021/03/31 00:44:50;;;;;;;16.70;13.15;;;9.80;90.10;;;;;;5033632;28;20213;-40
2021/03/31 00:47:17;;;;;;;15.65;12.20;;;9.80;90.10;;;;;;5033458;28;20224;-40
2021/03/31 00:49:44;;;;;;;14.55;11.07;;;9.80;90.20;;;;;;5033345;28;20233;-40
2021/03/31 00:52:12;;;;;;;14.90;10.90;;;9.80;90.30;;;;;;5033558;28;20267;-40
2021/03/31 00:54:40;;;;;;;15.63;12.18;;;9.80;90.30;;;;;;5033753;28;20220;-39
2021/03/31 00:57:07;;;;;;;13.82;11.48;;;9.80;90.40;;;;;;5033274;28;20212;-39
2021/03/31 00:59:34;;;;;;;14.00;10.05;;;9.70;90.50;;;;;;5033093;28;20552;-38
2021/03/31 01:02:02;;;;;;;15.90;10.85;;;9.70;90.60;;;;;;5033046;28;20205;-39
2021/03/31 01:04:29;;;;;;;14.13;9.48;;;9.70;90.70;;;;;;5033258;28;20299;-39
2021/03/31 01:06:56;;;;;;;14.30;10.38;;;9.60;90.80;;;;;;5033242;28;20248;-39
2021/03/31 01:09:25;;;;;;;14.25;10.52;;;9.60;90.90;;;;;;5033006;28;20325;-39
2021/03/31 01:11:58;;;;;;;9.93;8.77;;;9.60;90.90;;;;;;5033009;28;20205;-39
2021/03/31 01:14:34;;;;;;;15.77;10.43;;;9.60;91.00;;;;;;5032910;28;20683;-38
2021/03/31 01:17:07;;;;;;;14.57;9.95;;;9.60;91.10;;;;;;5032854;28;20702;-39
2021/03/31 01:20:02;;;;;;;14.25;9.73;;;9.60;91.10;;;;;;5033065;28;20287;-38
2021/03/31 01:23:01;;;;;;;13.52;10.27;;;9.60;91.30;;;;;;5032502;28;20336;-39
2021/03/31 01:25:36;;;;;;;15.82;9.95;;;9.50;91.30;;;;;;5016344;28;20706;-39
2021/03/31 01:28:39;;;;;;;14.82;10.18;;;9.50;91.40;;;;;;5032747;28;20208;-39
2021/03/31 01:31:12;;;;;;;13.85;9.02;;;9.40;91.40;;;;;;5019650;28;20375;-38
2021/03/31 01:34:11;;;;;;;12.13;9.43;;;9.40;91.50;;;;;;5032780;28;20231;-39
2021/03/31 01:36:41;;;;;;;14.77;10.25;;;9.30;91.80;;;;;;5032579;28;20215;-39
2021/03/31 01:39:12;;;;;;;12.85;8.88;;;9.30;91.80;;;;;;5032405;28;20213;-39
2021/03/31 01:41:40;;;;;;;13.73;9.40;;;9.30;91.80;;;;;;5032439;28;20251;-39
2021/03/31 01:44:10;;;;;;;15.95;10.32;;;9.30;92.20;;;;;;5032340;28;20213;-40
2021/03/31 01:46:40;;;;;;;15.60;8.90;;;9.30;91.90;;;;;;5032618;28;20208;-39
2021/03/31 01:49:09;;;;;;;9.68;8.23;;;9.30;92.00;;;;;;5032334;28;20315;-40
2021/03/31 01:51:39;;;;;;;11.40;8.38;;;9.20;92.00;;;;;;5032683;28;20609;-39
2021/03/31 01:54:07;;;;;;;10.52;8.50;;;9.20;92.10;;;;;;5032205;28;20212;-40
2021/03/31 01:56:34;;;;;;;11.02;8.82;;;9.20;92.20;;;;;;5032182;28;20240;-40
2021/03/31 01:59:03;;;;;;;10.52;7.93;;;9.20;92.30;;;;;;5032143;28;20254;-40
2021/03/31 02:01:32;;;;;;;11.40;8.70;;;9.20;92.40;;;;;;5032145;28;20307;-40
2021/03/31 02:04:00;;;;;;;9.73;7.85;;;9.20;92.50;;;;;;5032569;28;20295;-40
2021/03/31 02:06:29;;;;;;;11.93;8.32;;;9.10;92.50;;;;;;5031797;28;20251;-40
2021/03/31 02:08:58;;;;;;;13.70;8.20;;;9.10;92.70;;;;;;5031916;28;20745;-40
2021/03/31 02:11:26;;;;;;;15.35;8.63;;;9.10;92.70;;;;;;5032210;28;20235;-40
2021/03/31 02:13:54;;;;;;;11.93;8.43;;;9.10;92.80;;;;;;5031831;28;20208;-40
2021/03/31 02:16:22;;;;;;;14.85;8.15;;;9.10;92.80;;;;;;5032019;28;20239;-40
2021/03/31 02:18:53;;;;;;;16.48;8.80;;;9.00;92.90;;;;;;5031824;28;20204;-40
2021/03/31 02:21:21;;;;;;;11.18;8.30;;;9.00;92.90;;;;;;5031579;28;20244;-40
2021/03/31 02:23:50;;;;;;;12.75;8.20;;;9.00;93.00;;;;;;5032011;28;20204;-40
2021/03/31 02:26:17;;;;;;;14.30;9.00;;;9.00;93.10;;;;;;5031910;28;20235;-40
2021/03/31 02:28:45;;;;;;;13.32;8.57;;;8.90;93.30;;;;;;5031473;28;20644;-40
2021/03/31 02:31:14;;;;;;;11.98;7.72;;;8.80;93.40;;;;;;5031684;28;20239;-40
2021/03/31 02:33:43;;;;;;;10.45;8.32;;;8.80;93.50;;;;;;5031221;28;20316;-40
2021/03/31 02:36:12;;;;;;;13.15;7.93;;;8.80;93.60;;;;;;5031683;28;20219;-40
2021/03/31 02:38:39;;;;;;;13.90;8.88;;;8.80;93.60;;;;;;5031665;28;20212;-41
2021/03/31 02:41:06;;;;;;;10.98;8.48;;;8.80;93.70;;;;;;5031638;28;20213;-39
2021/03/31 02:43:37;;;;;;;11.07;8.30;;;8.80;93.60;;;;;;5031653;28;20288;-38
2021/03/31 02:46:05;;;;;;;13.40;7.80;;;8.80;93.80;;;;;;5031542;28;20303;-39
2021/03/31 02:48:33;;;;;;;8.73;7.60;;;8.80;93.80;;;;;;5031506;28;20252;-39
2021/03/31 02:51:04;;;;;;;11.80;7.90;;;8.80;93.80;;;;;;5031511;28;20216;-39
2021/03/31 02:53:31;;;;;;;15.65;8.45;;;8.80;93.80;;;;;;5031740;28;20558;-40
2021/03/31 02:56:03;;;;;;;11.55;7.97;;;8.80;93.80;;;;;;5032004;28;20251;-40
2021/03/31 02:58:30;;;;;;;14.95;8.52;;;8.80;93.80;;;;;;5031915;28;20236;-40
2021/03/31 03:00:59;;;;;;;9.63;8.02;;;8.80;93.80;;;;;;5031540;28;20303;-40
2021/03/31 03:03:26;;;;;;;10.00;7.88;;;8.80;94.20;;;;;;5031260;28;20694;-40
2021/03/31 03:05:55;;;;;;;13.48;8.27;;;8.80;93.90;;;;;;5031734;28;20251;-40
2021/03/31 03:08:24;;;;;;;15.65;7.80;;;8.80;94.00;;;;;;5031688;28;20252;-40
2021/03/31 03:10:51;;;;;;;9.48;7.80;;;8.80;94.00;;;;;;5031504;28;20685;-40
2021/03/31 03:13:21;;;;;;;9.65;8.73;;;8.80;94.10;;;;;;5031798;28;20215;-40
2021/03/31 03:15:48;;;;;;;15.30;7.93;;;8.80;94.10;;;;;;5031486;28;20676;-40
2021/03/31 03:18:16;;;;;;;13.90;8.25;;;8.70;94.10;;;;;;5031599;28;20240;-40
2021/03/31 03:20:46;;;;;;;11.23;8.68;;;8.70;94.20;;;;;;5031755;28;20232;-40
2021/03/31 03:23:13;;;;;;;13.85;8.95;;;8.60;94.30;;;;;;5031325;28;20240;-40
2021/03/31 03:25:41;;;;;;;15.80;8.70;;;8.60;94.40;;;;;;5031243;28;20680;-40
2021/03/31 03:28:09;;;;;;;12.75;10.20;;;8.60;94.40;;;;;;5031446;28;20204;-40
2021/03/31 03:30:36;;;;;;;11.00;8.73;;;8.50;94.50;;;;;;5031596;28;20256;-40
2021/03/31 03:33:05;;;;;;;14.45;9.77;;;8.50;94.60;;;;;;5031390;28;20267;-40
2021/03/31 03:35:33;;;;;;;13.90;9.68;;;8.40;94.70;;;;;;5031411;28;20299;-40
2021/03/31 03:38:00;;;;;;;14.60;9.57;;;8.30;94.80;;;;;;5031280;28;20211;-40
2021/03/31 03:40:28;;;;;;;12.35;10.20;;;8.30;94.90;;;;;;5031896;28;20301;-40
2021/03/31 03:42:55;;;;;;;16.50;9.93;;;8.30;94.90;;;;;;5031534;28;20298;-40
2021/03/31 03:45:25;;;;;;;12.50;9.80;;;8.30;94.90;;;;;;5031447;28;20689;-40
2021/03/31 03:47:53;;;;;;;12.80;8.95;;;8.30;94.90;;;;;;5034406;28;20232;-39
2021/03/31 03:50:20;;;;;;;14.93;10.30;;;8.30;95.00;;;;;;5034580;28;20339;-39
2021/03/31 03:52:50;;;;;;;14.25;10.55;;;8.30;95.00;;;;;;5035012;28;20213;-40
2021/03/31 03:55:18;;;;;;;10.70;9.05;;;8.30;95.00;;;;;;5034757;28;20308;-39
2021/03/31 03:57:45;;;;;;;12.45;9.23;;;8.30;95.00;;;;;;5034675;28;20213;-39
2021/03/31 04:00:14;;;;;;;13.65;9.15;;;8.30;95.10;;;;;;5034474;28;20639;-39
2021/03/31 04:02:42;;;;;;;12.88;9.27;;;8.20;95.10;;;;;;5034382;28;20259;-39
2021/03/31 04:05:10;;;;;;;14.98;10.13;;;8.20;95.20;;;;;;5034095;28;20209;-40
2021/03/31 04:07:37;;;;;;;12.68;9.07;;;8.20;95.30;;;;;;5034046;28;20303;-39
2021/03/31 04:10:08;;;;;;;12.85;9.20;;;8.10;95.40;;;;;;5034316;28;20229;-40
2021/03/31 04:12:36;;;;;;;12.13;9.88;;;8.10;95.40;;;;;;5034482;28;20295;-39
2021/03/31 04:15:06;;;;;;;17.00;9.38;;;8.10;95.50;;;;;;5032551;28;20639;-40
2021/03/31 04:17:36;;;;;;;13.93;9.57;;;8.00;95.50;;;;;;5034160;28;20213;-40
2021/03/31 04:20:05;;;;;;;16.95;10.40;;;7.90;95.60;;;;;;5034361;28;20280;-40
2021/03/31 04:22:32;;;;;;;18.15;11.48;;;7.90;95.70;;;;;;5034042;28;20324;-40
2021/03/31 04:24:59;;;;;;;15.80;10.23;;;7.90;95.90;;;;;;5034070;28;20300;-40
2021/03/31 04:27:28;;;;;;;16.05;10.52;;;7.80;95.90;;;;;;5034095;28;20310;-38
2021/03/31 04:29:55;;;;;;;14.23;10.57;;;7.80;96.00;;;;;;5033957;28;20225;-39
2021/03/31 04:32:23;;;;;;;18.02;10.13;;;7.80;96.00;;;;;;5034285;28;20303;-39
2021/03/31 04:34:51;;;;;;;15.88;9.80;;;7.80;96.30;;;;;;5034226;28;20242;-39
2021/03/31 04:37:18;;;;;;;12.23;9.70;;;7.80;96.00;;;;;;5033846;28;20307;-39
2021/03/31 04:39:45;;;;;;;15.90;10.70;;;7.80;96.10;;;;;;5034035;28;20613;-39
2021/03/31 04:42:12;;;;;;;12.43;9.90;;;7.80;96.10;;;;;;5033876;28;20589;-39
2021/03/31 04:44:40;;;;;;;15.80;10.98;;;7.80;96.20;;;;;;5033763;28;20244;-39
2021/03/31 04:47:07;;;;;;;16.88;11.18;;;7.80;96.20;;;;;;5033714;28;20295;-40
2021/03/31 04:49:34;;;;;;;17.88;11.15;;;7.80;96.20;;;;;;5033710;28;20252;-41
2021/03/31 04:52:02;;;;;;;17.80;10.45;;;7.80;96.20;;;;;;5033805;28;20291;-40
2021/03/31 04:54:29;;;;;;;20.50;9.82;;;7.80;96.30;;;;;;5033628;28;20223;-39
2021/03/31 04:56:56;;;;;;;18.85;10.75;;;7.80;96.40;;;;;;5033147;28;20209;-40
2021/03/31 04:59:23;;;;;;;22.67;10.82;;;7.80;96.40;;;;;;5033604;28;20573;-40
2021/03/31 05:01:51;;;;;;;15.23;10.35;;;7.80;96.40;;;;;;5033522;28;20293;-40
2021/03/31 05:04:18;;;;;;;13.70;10.68;;;7.80;96.50;;;;;;5033397;28;20671;-41
2021/03/31 05:06:45;;;;;;;17.05;10.70;;;7.70;96.50;;;;;;5033571;28;20613;-40
2021/03/31 05:09:12;;;;;;;15.85;11.30;;;7.70;96.60;;;;;;5033159;28;20225;-40
2021/03/31 05:11:39;;;;;;;15.60;10.13;;;7.70;96.70;;;;;;5033203;28;20247;-40
2021/03/31 05:14:06;;;;;;;13.68;10.82;;;7.70;97.00;;;;;;5033130;28;20733;-40
2021/03/31 05:16:34;;;;;;;19.50;11.98;;;7.80;96.70;;;;;;5033280;28;20288;-40
2021/03/31 05:19:01;;;;;;;25.08;12.65;;;7.70;96.70;;;;;;5032777;28;20776;-40
2021/03/31 05:21:28;;;;;;;15.65;11.23;;;7.80;96.80;;;;;;5032946;28;20283;-40
2021/03/31 05:23:55;;;;;;;19.38;11.13;;;7.80;96.80;;;;;;5033038;28;20236;-40
2021/03/31 05:26:22;;;;;;;16.35;10.68;;;7.90;96.70;;;;;;5032604;28;20204;-39
2021/03/31 05:28:49;;;;;;;18.63;12.70;;;7.90;96.70;;;;;;5032882;28;20304;-39
2021/03/31 05:31:16;;;;;;;14.48;10.80;;;7.90;96.60;;;;;;5032835;28;20344;-39
2021/03/31 05:33:44;;;;;;;17.00;10.88;;;8.00;96.50;;;;;;5032509;28;20209;-39
2021/03/31 05:36:11;;;;;;;15.40;10.55;;;8.00;96.50;;;;;;5032420;28;20299;-40
2021/03/31 05:38:38;;;;;;;15.15;10.70;;;8.10;96.50;;;;;;5032466;28;20209;-39
2021/03/31 05:41:05;;;;;;;13.48;9.85;;;8.10;96.50;;;;;;5032458;28;20723;-40
2021/03/31 05:43:32;;;;;;;12.85;9.88;;;8.20;96.40;;;;;;5032799;28;20291;-40
2021/03/31 05:46:01;;;;;;;15.68;9.48;;;8.20;96.30;;;;;;5032744;28;20239;-40
2021/03/31 05:48:28;;;;;;;12.98;9.23;;;8.30;96.30;;;;;;5024572;28;20212;-40
2021/03/31 05:50:55;;;;;;;16.15;9.15;;;8.30;96.20;;;;;;5052379;28;20235;-40
2021/03/31 05:53:23;;;;;;;12.70;9.77;;;8.40;96.10;;;;;;5052272;28;20671;-40
2021/03/31 05:55:50;;;;;;;16.77;10.65;;;8.40;96.00;;;;;;5052639;28;20238;-40
2021/03/31 05:58:17;;;;;;;13.73;9.57;;;8.50;96.00;;;;;;5052481;28;20365;-39
2021/03/31 06:00:45;;;;;;;15.60;9.55;;;8.50;95.80;;;;;;5052037;28;20666;-39
2021/03/31 06:03:12;;;;;;;12.88;8.93;;;8.60;95.70;;;;;;5052169;28;20686;-40
2021/03/31 06:05:39;;;;;;;14.18;9.05;;;8.70;95.50;;;;;;5052323;28;20208;-39
2021/03/31 06:08:06;;;;;;;13.68;9.73;;;8.80;95.40;;;;;;5051878;28;20291;-40
2021/03/31 06:10:37;;;;;;;19.33;10.63;;;8.90;95.50;;;;;;5051273;28;20760;-40
2021/03/31 06:13:06;;;;;;;14.18;10.10;;;9.10;95.00;;;;;;5052157;28;20212;-40
2021/03/31 06:15:36;;;;;;;21.13;9.73;;;9.20;94.90;;;;;;5052168;28;20208;-40
2021/03/31 06:18:11;;;;;;;12.85;8.48;;;9.20;94.70;;;;;;5052255;28;20212;-40
2021/03/31 06:20:45;;;;;;;12.88;9.38;;;9.40;94.50;;;;;;5052018;28;20697;-40
2021/03/31 06:23:23;;;;;;;11.82;9.15;;;9.50;94.40;;;;;;5051677;28;20327;-39
2021/03/31 06:25:56;;;;;;;11.48;8.32;;;9.60;94.20;;;;;;5051679;28;20288;-40
2021/03/31 06:28:32;;;;;;;11.60;9.05;;;9.70;94.20;;;;;;5051460;28;20303;-40
2021/03/31 06:31:19;;;;;;;10.85;8.30;;;9.90;93.80;;;;;;5051370;28;20228;-40
2021/03/31 06:33:47;;;;;;;10.73;8.40;;;9.90;93.60;;;;;;5051660;28;20243;-40
2021/03/31 06:36:17;;;;;;;13.32;9.43;;;10.00;93.40;;;;;;5051633;28;20208;-40
2021/03/31 06:38:50;;;;;;;14.52;8.68;;;10.20;93.30;;;;;;5051612;28;20230;-40
2021/03/31 06:41:27;;;;;;;10.05;8.18;;;10.30;93.10;;;;;;5051556;28;20219;-40
2021/03/31 06:44:05;;;;;;;14.95;8.90;;;10.30;93.00;;;;;;5051709;28;20230;-40
2021/03/31 06:46:38;;;;;;;15.55;8.52;;;10.40;92.90;;;;;;5051700;28;20212;-40
2021/03/31 06:49:05;;;;;;;12.60;8.68;;;10.40;92.80;;;;;;5051528;28;20559;-40
2021/03/31 06:51:33;;;;;;;14.63;8.73;;;10.50;92.70;;;;;;5051063;28;20296;-40
2021/03/31 06:54:12;;;;;;;14.18;9.02;;;10.60;92.60;;;;;;5051103;28;20662;-39
2021/03/31 06:56:41;;;;;;;13.00;8.75;;;10.70;92.50;;;;;;5051484;28;20614;-39
2021/03/31 06:59:08;;;;;;;15.02;8.30;;;10.80;92.30;;;;;;5051509;28;20730;-40
2021/03/31 07:01:35;;;;;;;16.08;9.93;;;10.90;92.10;;;;;;5051492;28;20314;-40
2021/03/31 07:04:04;;;;;;;15.15;10.18;;;11.00;91.90;;;;;;5051257;28;20295;-40
2021/03/31 07:06:32;;;;;;;12.65;9.10;;;11.20;91.80;;;;;;5051422;28;20571;-41
2021/03/31 07:08:59;;;;;;;16.33;9.65;;;11.30;91.60;;;;;;5051144;28;20710;-40
2021/03/31 07:11:37;;;;;;;17.42;10.98;;;11.40;91.40;;;;;;5051206;28;20232;-41
2021/03/31 07:14:07;;;;;;;21.08;11.02;;;11.60;91.30;;;;;;5051344;28;20242;-42
2021/03/31 07:16:35;;;;;;;14.88;9.80;;;11.70;91.00;;;;;;5051108;28;20255;-40
2021/03/31 07:19:03;;;;;;;16.55;10.48;;;11.80;90.80;;;;;;5050904;28;20215;-40
2021/03/31 07:21:38;;;;;;;18.25;10.48;;;11.90;90.60;;;;;;5053773;28;20258;-40
2021/03/31 07:24:07;;;;;;;16.73;11.02;;;12.00;90.40;;;;;;5054658;28;20234;-40
2021/03/31 07:26:34;;;;;;;18.38;10.32;;;12.00;90.30;;;;;;5054835;28;20295;-39
2021/03/31 07:29:02;;;;;;;14.18;11.10;;;12.00;90.10;;;;;;5054641;28;20315;-40
2021/03/31 07:31:31;;;;;;;12.40;10.10;;;12.00;90.30;;;;;;5054755;28;20757;-42
2021/03/31 07:34:10;;;;;;;13.23;11.30;;;12.10;90.00;;;;;;5054866;28;20235;-40
2021/03/31 07:36:39;;;;;;;17.20;11.32;;;12.20;90.20;;;;;;5054779;28;20208;-40
2021/03/31 07:39:07;;;;;;;15.43;11.55;;;12.20;89.70;;;;;;5054757;28;20237;-39
2021/03/31 07:41:37;;;;;;;17.00;11.98;;;12.30;89.30;;;;;;5054293;28;20212;-40
2021/03/31 07:44:06;;;;;;;15.10;12.02;;;12.30;88.90;;;;;;5054778;28;20559;-40
2021/03/31 07:46:41;;;;;;;15.23;11.75;;;12.50;88.40;;;;;;5054675;28;20223;-40
2021/03/31 07:49:10;;;;;;;15.95;12.27;;;12.70;87.80;;;;;;5054472;28;20627;-40
2021/03/31 07:51:39;;;;;;;17.30;12.52;;;12.80;87.30;;;;;;5054572;28;20242;-40
2021/03/31 07:54:15;;;;;;;14.95;12.45;;;13.00;86.70;;;;;;5054348;28;20291;-40
2021/03/31 07:56:43;;;;;;;17.25;12.55;;;13.20;86.30;;;;;;5054403;28;20292;-39
2021/03/31 07:59:12;;;;;;;17.45;12.70;;;13.30;85.50;;;;;;5054049;28;20207;-40
2021/03/31 08:01:44;;;;;;;20.92;12.10;;;13.40;85.20;;;;;;5054226;28;20212;-39
2021/03/31 08:04:12;;;;;;;19.08;12.13;;;13.40;85.00;;;;;;5054129;28;20269;-40
2021/03/31 08:06:40;;;;;;;21.40;11.82;;;13.50;84.70;;;;;;5054171;28;20575;-38
2021/03/31 08:09:09;;;;;;;14.38;12.25;;;13.60;84.60;;;;;;5054319;28;20299;-39
2021/03/31 08:11:59;;;;;;;17.35;12.02;;;13.80;84.20;;;;;;5054129;28;20310;-39
2021/03/31 08:14:44;;;;;;;17.92;13.35;;;14.00;83.50;;;;;;5054140;28;20208;-40
2021/03/31 08:17:29;;;;;;;14.52;12.00;;;14.10;82.60;;;;;;5054119;28;20203;-40
2021/03/31 08:19:57;;;;;;;17.50;13.40;;;14.20;82.30;;;;;;5053958;28;20723;-39
2021/03/31 08:22:33;;;;;;;19.88;13.15;;;14.20;81.80;;;;;;5053739;28;20297;-39
2021/03/31 08:25:10;;;;;;;19.83;12.27;;;14.30;81.00;;;;;;5053809;28;20226;-40
2021/03/31 08:27:56;;;;;;;18.35;12.60;;;14.40;80.90;;;;;;5053806;28;20292;-40
2021/03/31 08:30:24;;;;;;;12.77;11.35;;;14.50;80.20;;;;;;5053940;28;20231;-40
2021/03/31 08:32:54;;;;;;;17.73;11.82;;;14.60;80.00;;;;;;5053122;28;20274;-40
2021/03/31 08:35:22;;;;;;;17.88;12.13;;;14.60;80.50;;;;;;5054029;28;20262;-41
2021/03/31 08:37:50;;;;;;;16.35;12.20;;;14.70;79.50;;;;;;5053580;28;20706;-41
2021/03/31 08:40:19;;;;;;;17.00;12.50;;;14.90;79.10;;;;;;5053673;28;20642;-40
2021/03/31 08:43:04;;;;;;;14.45;12.30;;;15.20;78.50;;;;;;5053858;28;20208;-40
2021/03/31 08:45:34;;;;;;;17.15;12.52;;;15.40;77.80;;;;;;5053674;28;20208;-40
2021/03/31 08:48:02;;;;;;;16.45;11.73;;;15.50;77.20;;;;;;5053608;28;20287;-41
2021/03/31 08:50:36;;;;;;;20.05;12.55;;;15.60;76.90;;;;;;5053256;28;20231;-40
2021/03/31 08:53:09;;;;;;;14.52;11.43;;;15.80;76.50;;;;;;5053563;28;20668;-41
2021/03/31 08:55:38;;;;;;;18.92;12.80;;;15.90;75.60;;;;;;5053557;28;20215;-41
2021/03/31 08:58:09;;;;;;;16.65;11.68;;;16.00;75.30;;;;;;5053243;28;20306;-40
2021/03/31 09:00:46;;;;;;;17.58;11.98;;;16.10;74.80;;;;;;5053101;28;20215;-41
2021/03/31 09:03:15;;;;;;;16.58;11.68;;;16.20;73.50;;;;;;5053422;28;20311;-42
2021/03/31 09:05:54;;;;;;;14.77;11.40;;;16.30;73.50;;;;;;5053319;28;20376;-40
2021/03/31 09:08:22;;;;;;;18.05;12.27;;;16.50;71.60;;;;;;5053251;28;20287;-39
2021/03/31 09:10:56;;;;;;;18.02;11.95;;;16.60;71.00;;;;;;5052964;28;20571;-41
2021/03/31 09:13:25;;;;;;;17.52;13.55;;;16.80;70.50;;;;;;5053228;28;20212;-41
2021/03/31 09:15:53;;;;;;;20.15;13.23;;;16.90;70.20;;;;;;5053180;28;20247;-42
2021/03/31 09:18:22;;;;;;;17.08;12.80;;;17.10;69.70;;;;;;5053059;28;20242;-42
2021/03/31 09:20:49;;;;;;;14.43;11.60;;;17.10;69.00;;;;;;5052611;28;20200;-43
2021/03/31 09:23:21;;;;;;;19.23;11.90;;;17.20;68.20;;;;;;5052679;28;20247;-41
2021/03/31 09:25:56;;;;;;;17.75;12.48;;;17.20;67.70;;;;;;5052631;28;20212;-42
2021/03/31 09:28:24;;;;;;;16.05;12.18;;;17.20;67.10;;;;;;5052862;28;20231;-41
2021/03/31 09:30:52;;;;;;;16.48;12.52;;;17.20;67.40;;;;;;5052562;28;20227;-43
2021/03/31 09:33:30;;;;;;;17.85;13.00;;;17.30;67.00;;;;;;5052775;28;20215;-43
2021/03/31 09:36:13;;;;;;;15.93;12.00;;;17.40;66.50;;;;;;5052482;28;20208;-41
2021/03/31 09:39:00;;;;;;;14.00;10.05;;;17.50;65.90;;;;;;5052519;28;20207;-41
2021/03/31 09:41:29;;;;;;;16.77;11.70;;;17.60;65.70;;;;;;5052456;28;20216;-41
2021/03/31 09:43:57;;;;;;;15.48;11.40;;;17.70;65.50;;;;;;5052483;28;20212;-41
2021/03/31 09:46:25;;;;;;;14.95;11.82;;;17.70;65.20;;;;;;5052479;28;20269;-41
2021/03/31 09:48:54;;;;;;;15.63;11.95;;;17.80;65.00;;;;;;5052188;28;20208;-41
2021/03/31 09:51:22;;;;;;;16.70;11.80;;;17.90;64.80;;;;;;5052853;28;20236;-43
2021/03/31 09:53:50;;;;;;;18.20;11.88;;;18.00;64.20;;;;;;5053560;28;20211;-41
2021/03/31 09:56:19;;;;;;;19.15;11.60;;;18.20;63.60;;;;;;5053356;28;20627;-41
2021/03/31 09:58:49;;;;;;;15.95;11.77;;;18.30;63.10;;;;;;5053415;28;20224;-40
2021/03/31 10:01:18;;;;;;;17.95;11.20;;;18.40;62.90;;;;;;5053234;28;20265;-41
2021/03/31 10:03:46;;;;;;;12.93;11.23;;;18.50;62.40;;;;;;5054529;28;20203;-40
2021/03/31 10:06:20;;;;;;;18.30;11.70;;;18.50;61.60;;;;;;5053037;28;20212;-41
2021/03/31 10:08:48;;;;;;;15.98;11.52;;;18.60;61.30;;;;;;5053091;28;20262;-39
2021/03/31 10:11:35;;;;;;;15.95;11.98;;;18.50;61.20;;;;;;5053237;28;20220;-40
2021/03/31 10:14:04;;;;;;;17.95;12.43;;;18.60;60.60;;;;;;5052876;28;20211;-41
2021/03/31 10:16:35;;;;;;;20.15;13.18;;;18.70;60.60;;;;;;5053073;28;20210;-41
2021/03/31 10:19:04;;;;;;;16.40;12.18;;;18.80;60.30;;;;;;5053284;28;20207;-41
2021/03/31 10:21:34;;;;;;;16.58;12.48;;;19.00;60.70;;;;;;5052768;28;20565;-41
2021/03/31 10:24:02;;;;;;;18.42;13.15;;;19.10;59.70;;;;;;5052958;28;20559;-41
2021/03/31 10:26:50;;;;;;;15.68;12.93;;;19.10;59.50;;;;;;5052758;28;20700;-40
2021/03/31 10:29:30;;;;;;;15.20;12.40;;;19.10;59.50;;;;;;5052701;28;20227;-39
2021/03/31 10:32:16;;;;;;;18.58;12.70;;;19.20;59.50;;;;;;5052718;28;20269;-40
2021/03/31 10:34:46;;;;;;;18.83;12.35;;;19.20;59.50;;;;;;5052274;28;20208;-39
2021/03/31 10:37:24;;;;;;;16.27;12.02;;;19.30;59.50;;;;;;5052294;28;20572;-40
2021/03/31 10:46:51;;;;;;;14.70;12.23;;;19.70;58.20;;;;;;5052970;28;20187;-40
2021/03/31 10:49:30;;;;;;;19.67;17.08;;;19.70;58.30;;;;;;5052578;28;20235;-40
2021/03/31 10:51:59;;;;;;;17.77;12.50;;;19.70;58.10;;;;;;5052564;28;20261;-40
2021/03/31 10:54:28;;;;;;;18.92;12.98;;;19.90;57.70;;;;;;5052618;28;20607;-40
2021/03/31 10:57:05;;;;;;;16.63;13.02;;;20.10;57.50;;;;;;5056262;28;20243;-40
2021/03/31 10:59:32;;;;;;;15.95;12.68;;;20.00;57.40;;;;;;5056390;28;20200;-40
2021/03/31 11:01:59;;;;;;;15.68;11.20;;;20.00;57.40;;;;;;5056558;28;20207;-41
2021/03/31 11:04:26;;;;;;;14.75;11.50;;;20.00;57.10;;;;;;5056790;28;20584;-42
2021/03/31 11:06:53;;;;;;;17.73;11.73;;;20.00;56.90;;;;;;5056308;28;20290;-40
2021/03/31 11:09:21;;;;;;;15.05;11.88;;;20.10;56.90;;;;;;5056107;28;20204;-41
2021/03/31 11:11:49;;;;;;;13.38;11.02;;;20.10;56.40;;;;;;5056482;28;20235;-41
2021/03/31 11:14:17;;;;;;;13.07;10.38;;;20.20;55.60;;;;;;5056426;28;20659;-40
2021/03/31 11:16:51;;;;;;;16.08;11.63;;;20.20;55.30;;;;;;5056255;28;20207;-41
2021/03/31 11:19:34;;;;;;;14.43;10.63;;;20.30;55.20;;;;;;5057233;28;20611;-41
2021/03/31 11:27:32;;;;;;;11.27;9.45;;;20.40;53.90;;;;;;5057156;28;20250;-46
2021/03/31 11:30:02;;;;;;;15.30;10.32;;;20.50;53.30;;;;;;5056542;28;20239;-43
2021/03/31 11:32:30;;;;;;;12.15;10.85;;;20.50;52.90;;;;;;5056563;28;20641;-41
2021/03/31 11:34:57;;;;;;;14.82;10.02;;;20.70;52.60;;;;;;5056083;28;20616;-43
2021/03/31 11:37:25;;;;;;;10.38;8.60;;;20.70;51.70;;;;;;5056664;28;20287;-40
2021/03/31 11:39:52;;;;;;;10.20;8.48;;;20.70;51.30;;;;;;5056588;28;20203;-40
2021/03/31 11:42:19;;;;;;;13.02;9.07;;;20.70;50.70;;;;;;5056225;28;20212;-41
2021/03/31 11:44:47;;;;;;;9.63;8.07;;;20.70;50.70;;;;;;5056058;28;20286;-41
2021/03/31 11:47:14;;;;;;;10.20;6.40;;;20.70;50.40;;;;;;5055803;28;20243;-41
2021/03/31 11:49:45;;;;;;;11.25;8.25;;;20.90;49.70;;;;;;5056277;28;20208;-41
2021/03/31 11:52:12;;;;;;;10.13;7.97;;;20.90;48.90;;;;;;5056868;28;20224;-41
2021/03/31 11:54:39;;;;;;;9.40;7.18;;;21.00;48.60;;;;;;5056655;28;20671;-43
2021/03/31 11:57:07;;;;;;;15.43;11.05;;;21.00;48.30;;;;;;5056177;28;20216;-41
2021/03/31 11:59:34;;;;;;;12.15;9.60;;;21.10;48.30;;;;;;5054997;28;20219;-40
2021/03/31 12:02:03;;;;;;;12.18;10.55;;;21.20;48.30;;;;;;5054996;28;20569;-40
2021/03/31 12:04:30;;;;;;;12.73;10.40;;;21.30;48.30;;;;;;5055169;28;20224;-40
2021/03/31 12:06:57;;;;;;;11.27;9.02;;;21.50;48.00;;;;;;5055146;28;20208;-41
2021/03/31 12:09:24;;;;;;;12.43;8.82;;;21.70;47.70;;;;;;5056093;28;20259;-41
2021/03/31 12:11:55;;;;;;;9.40;7.85;;;21.80;47.40;;;;;;5055274;28;20706;-41
2021/03/31 12:18:05;;;;;;;12.63;9.50;;;21.90;46.80;;;;;;5055354;28;20187;-40
2021/03/31 12:20:32;;;;;;;12.60;9.63;;;21.90;47.20;;;;;;5054866;28;20212;-40
2021/03/31 12:23:00;;;;;;;13.25;10.48;;;21.90;47.30;;;;;;5054533;28;20302;-41
2021/03/31 12:25:27;;;;;;;12.30;10.38;;;21.90;47.40;;;;;;5054312;28;20204;-40
2021/03/31 12:27:57;;;;;;;12.63;10.07;;;22.00;47.50;;;;;;5053837;28;20212;-39
2021/03/31 12:30:26;;;;;;;18.27;10.85;;;22.00;47.50;;;;;;5054089;28;20227;-39
2021/03/31 12:32:53;;;;;;;13.82;10.68;;;21.90;47.60;;;;;;5054408;28;20745;-39
2021/03/31 12:35:22;;;;;;;13.95;10.38;;;22.00;47.80;;;;;;5054113;28;20208;-40
2021/03/31 12:37:49;;;;;;;13.65;10.23;;;22.00;47.70;;;;;;5054379;28;20334;-40
2021/03/31 12:40:17;;;;;;;13.35;10.20;;;22.00;47.60;;;;;;5054772;28;20295;-40
2021/03/31 12:42:44;;;;;;;10.32;9.07;;;22.00;47.40;;;;;;5055211;28;20212;-41
2021/03/31 12:45:12;;;;;;;13.48;9.35;;;21.90;46.80;;;;;;5054842;28;20219;-40
2021/03/31 12:47:40;;;;;;;12.85;9.30;;;21.90;46.80;;;;;;5054900;28;20627;-41
2021/03/31 12:50:09;;;;;;;15.25;9.85;;;21.90;46.60;;;;;;5055093;28;20204;-40
2021/03/31 12:52:41;;;;;;;12.13;9.57;;;21.90;46.60;;;;;;5055299;28;20638;-41
2021/03/31 12:55:12;;;;;;;12.90;10.18;;;22.00;46.40;;;;;;5054947;28;20280;-41
2021/03/31 12:57:39;;;;;;;13.57;9.77;;;22.10;46.20;;;;;;5055802;28;20211;-41
2021/03/31 13:00:07;;;;;;;18.45;11.50;;;22.10;46.20;;;;;;5054537;28;20211;-41
2021/03/31 13:02:55;;;;;;;17.38;11.50;;;22.20;46.50;;;;;;5055326;28;20204;-42
2021/03/31 13:05:22;;;;;;;23.05;11.00;;;22.20;46.70;;;;;;5054923;28;20273;-40